Aérodrome :
LOGIN :

S'inscrire | Disclaimer

   EN    FR    IT 

 










Légende :    VFR   VFR Marginal   IFR   IFR Intensif   IFR Très Intensif
Visi : 
Plafond : 
>= 8 km
>= 3000ft
5 à 8 km
1000 à 3000 ft
1500m à 5 km
500 à 1000 ft
800 à 1500m
200 à 500 ft
< 800m
< 200 ft
Symboles :   Orages  Brouillard  Fortes neiges  Fortes précipitations  Vent > 20 kt
SIGMETs :   Divers  Orages  Givrage  Turbulence  Onde Orograph.  Cendres Volcan.






- Altitude de l'aérodrome : 1058 ft
- Code IATA : SCN


EDDR - Saarbrücken

DERNIER METAR :
  • 300420Z 04010KT 010V080 9999 SCT033 M01/M07 Q1026 NOSIG

METARs EXPIRÉS :
  • 300350Z 04015KT 010V070 9999 BKN033 M01/M07 Q1026 NOSIG
  • 300320Z 04013KT 9999 BKN033 M00/M07 Q1026
  • 300250Z 04014KT 9999 BKN035 00/M07 Q1026
  • 300220Z 04015G30KT 010V070 9999 BKN035 00/M06 Q1026
  • 300150Z 04014KT 360V070 9999 BKN037 01/M06 Q1026

TAF TAF EDDR
Valide du 30 à 00h jusqu'au 31 à 00h UTC


292300Z 3000/3024 02015G25KT 9999 BKN020
BECMG 3001/3003 02010KT
PROB30
TEMPO 3008/3013 02015G25KT
BECMG 3016/3018 02005KT



MET'MAP, la Météo Aéronautique d'un coup d'oeil ! - Copyright ORBIFLY Décembre 2007 - Disclaimer

ORBIFLY MET'MAP TEAM :

Programmation & Développement : Alexandra Zaïnal
Sur une idée originale de : Baudouin d'Aumeries
Assistance à la programmation : Marc-Olivier Méhu
Soutien technique & logistique : Manuel Goepfert

Contact : metmap@orbifly.com




SOURCES & CREDITS :

   NOAA